Create Custom Reports and Graphics: Custom Report

Latest Observation

42 Stations

Daily Data | America/Los_Angeles
as of 4/18/24 12:26 PM PDT
Station Date Daily Max Temp (°F) Time of Max Temp Daily Min Temp (°F) Time of Min Temp Daily Rain (In) Month Precip (In) Season Precip (In) Daily ETo (in) 7 Day ETo (in) Daily Solar Rad (Cal/cm2) Wind Spd (mph) Daily Max Wind (mph) Time of Max Wind Max Wind Dir (°) Dew Pt (°F) Max RH (%) Min RH (%) Hrs 70-85F (hrs) Hrs > 95F (hrs) Powdery Mildew Stress (pts) Hrs <= 32F (hrs) Hrs <= 28F (hrs) GDDs (DL) Seas GDDs (DL) Chilling <=45F (hrs) Daily Leaf Wet (Hrs) Daily Max CanT (°F) Daily Min CanT (°F) MinBV Day (V)
Colony 1 4/17/24 78.9 1539 50.7 0642 0.00 2.19 17.24 0.134 0.91 453 1.4 7.1 1638 W | 279 54.0 100 36 7.60 0.00 60 0.0 0.0 13.7 135 0.0 - - - 12.7
Colony 2 4/17/24 80.8 1540 49.1 0623 0.00 1.93 15.69 0.137 0.92 457 1.5 7.3 1556 WNW | 294 53.0 95 38 7.35 0.00 60 0.0 0.0 12.9 131 0.0 - - - 12.7
Gill Ranch 4/17/24 76.0 1807 48.5 0648 0.00 2.00 16.28 0.136 0.91 471 1.9 7.8 1540 NW | 319 52.9 97 41 6.48 0.00 0 0.0 0.0 11.1 113 0.0 - - - 12.6
Borden40 4/17/24 77.2 1606 48.7 0403 0.00 2.04 15.47 0.140 0.91 471 1.7 8.4 1633 WNW | 289 52.8 96 40 6.45 0.00 0 0.0 0.0 11.7 124 0.0 - - - 12.7
5 Wells 4/17/24 78.4 1605 50.2 0631 0.00 1.89 14.91 0.095 0.63 270 2.0 8.9 1709 W | 275 53.4 99 39 6.98 0.00 60 0.0 0.0 12.6 128 0.0 - - - 12.4
Simmerhorn 4/17/24 78.3 1621 48.8 0558 - - - - - - - - - - 57.4 100 50 7.34 0.00 60 0.0 0.0 12.7 124 0.0 - - - 12.4
Alta Mesa Rd 4/17/24 77.8 1615 49.1 0604 0.00 2.30 15.25 0.144 0.88 489 1.7 10.7 1308 NNW | 334 54.0 98 43 6.83 0.00 60 0.0 0.0 11.7 123 0.0 - - - 12.7
Alabama Vineyard 4/17/24 76.7 1626 49.8 0636 0.00 1.83 14.99 0.130 0.84 442 1.9 9.1 1329 NE | 34 55.0 - - 6.74 0.00 0 0.0 0.0 12.1 124 0.0 - - - 11.9
Borden Hills 4/17/24 80.5 1625 51.3 0334 0.00 2.12 17.43 0.145 0.95 483 2.9 8.9 1421 NNW | 332 54.4 94 44 8.01 0.00 60 0.0 0.0 13.8 138 0.0 - - - 12.5
Sierra Loma-L27 4/17/24 81.0 1615 52.4 0649 0.00 1.58 16.36 - - - 0.1 9.1 1527 SW | 227 56.6 95 46 8.08 0.00 60 0.0 0.0 15.0 148 0.0 - - - 12.6
Lone Oak-L28 4/17/24 77.8 1417 47.8 0338 0.00 2.17 16.38 - - - 2.2 10.1 1432 NW | 310 53.8 97 46 7.89 0.00 0 0.0 0.0 11.9 122 0.0 - - - 11.8
Kost Rd 4/17/24 78.9 1612 47.2 0416 0.00 1.81 12.88 0.133 0.83 451 1.2 7.4 1513 NNW | 346 54.8 100 42 7.07 0.00 60 0.0 0.0 12.0 128 0.0 - - - 12.4
Lockeford 4/17/24 77.4 1630 46.8 0641 0.00 2.88 18.03 0.142 0.85 489 1.3 9.8 1257 N | 353 53.3 98 46 7.01 0.00 0 0.0 0.0 11.6 121 0.0 11.3 - -39.9 12.1
Thornton 4/17/24 78.6 1600 49.2 0640 0.00 2.03 14.39 0.145 0.94 491 1.2 8.8 1631 NNW | 344 52.5 91 41 7.17 0.00 60 0.0 0.0 12.3 129 0.0 4.7 - - 12.5
Lodi (LangeTwins) 4/17/24 80.2 1815 49.8 0445 0.00 2.07 15.85 0.140 0.87 483 0.9 8.8 1508 WSW | 250 54.8 100 41 7.26 0.00 0 0.0 0.0 12.8 133 0.0 4.3 - - 12.3
Gilbeau Ranch 4/17/24 78.1 1623 48.7 0508 0.00 2.18 16.64 0.130 0.80 423 1.3 8.1 1505 W | 280 52.6 95 41 7.37 0.00 30 0.0 0.0 12.4 127 0.0 - - - 12.2
Galt West 4/17/24 78.6 1804 50.5 0643 0.00 1.93 15.68 0.126 0.83 414 1.7 9.8 1514 NW | 321 53.6 96 40 6.96 0.00 60 0.0 0.0 12.6 130 0.0 - - - 12.5
Valley Oak 4/17/24 78.6 1607 50.2 0630 0.00 2.22 10.48 0.133 0.86 443 1.6 9.3 1407 W | 259 - - - 7.12 0.00 60 0.0 0.0 12.4 130 0.0 - - - 12.0
Guard Rd (Lodi WSW) 4/17/24 79.7 1826 47.8 0645 0.00 1.92 13.04 0.149 0.88 498 1.7 9.1 1238 NNW | 333 53.3 97 38 8.18 0.00 60 0.0 0.0 12.6 131 0.0 0.0 79.1 47.6 11.8
Linden 4/17/24 80.5 1628 47.7 0416 0.00 2.55 18.29 - - - 1.1 9.2 1232 N | 11 53.4 100 39 8.71 0.00 40 0.0 0.0 12.4 130 0.0 13.1 - - 12.6
DeVries Road-North 4/17/24 79.1 1614 49.3 0637 0.00 2.05 13.74 0.142 0.88 485 1.7 8.0 1340 NW | 322 54.4 100 42 6.80 0.00 60 0.0 0.0 12.7 130 0.0 - - - 12.6
Acampo 4/17/24 78.4 1629 50.4 0639 0.00 1.93 13.32 0.146 0.89 487 1.3 9.1 1526 N | 358 52.1 93 36 7.29 0.00 60 0.0 0.0 12.9 136 0.0 24.0 - - 13.3
Acampo (Woodbridge) 4/17/24 77.0 1634 50.1 0450 0.00 2.37 14.70 0.141 0.87 475 2.0 10.4 1603 N | 354 53.9 98 43 6.95 0.00 30 0.0 0.0 13.2 130 0.0 - - - 12.2
Lodi West 4/17/24 77.4 1708 50.8 0633 0.00 2.13 14.69 0.150 0.91 506 1.9 9.9 1218 N | 6 52.1 94 37 7.99 0.00 30 0.0 0.0 13.6 134 0.0 0.0 - - 12.1
Teresi-Alpine Rd (East Lodi) 4/17/24 77.6 1642 50.0 0501 0.00 2.51 15.50 - - - 1.8 9.2 1232 NNW | 327 53.0 96 40 7.70 0.00 60 0.0 0.0 13.0 137 0.0 - - - 12.6
Victor - N (Katusha) 4/17/24 78.1 1533 48.7 0446 0.00 2.45 15.08 - - - 1.2 10.1 1633 WNW | 290 52.2 96 39 7.18 0.00 60 0.0 0.0 12.2 - 0.0 - - - 12.6
Live Oak 4/17/24 78.5 1630 49.9 0502 0.00 2.35 15.20 0.155 0.91 509 1.6 9.8 1718 W | 269 53.4 100 38 8.69 0.00 60 0.0 0.0 13.3 138 0.0 - - - 12.6
Sheldon 4/17/24 80.0 1825 48.1 0508 0.00 1.65 14.67 0.136 0.84 433 1.4 9.1 1359 NNW | 333 50.9 95 33 8.16 0.00 60 0.0 0.0 13.0 127 0.0 6.4 80.4 47.8 12.7
Sloughhouse 4/17/24 80.6 1827 46.9 0457 0.00 1.51 14.53 0.148 0.88 478 1.3 8.8 1424 WNW | 294 51.4 100 33 8.60 0.00 30 0.0 0.0 12.8 130 0.0 - - - 12.4
Utter - Wilson 4/17/24 85.2 1757 50.6 0554 0.00 1.36 17.04 0.166 0.96 527 2.6 13.2 1048 N | 3 53.8 97 30 9.15 0.00 80 0.0 0.0 15.2 142 0.0 - - - 12.7
Clarksburg 4/17/24 80.6 1802 51.3 0503 0.00 0.08 10.92 0.142 0.94 465 1.9 9.8 1046 NNE | 27 51.8 92 30 8.35 0.00 60 0.0 0.0 13.9 136 0.0 - - - 12.5
Clarksburg-3A2 4/17/24 79.9 1755 47.8 0620 0.00 1.51 16.99 0.132 0.87 436 2.7 10.9 1305 NW | 326 53.0 100 37 7.24 0.00 60 0.0 0.0 12.5 119 0.0 - - - 12.6
Gorter - Wilson 4/17/24 80.3 1801 47.6 0621 0.00 1.40 15.42 0.121 0.76 374 2.1 10.3 1359 NNW | 328 54.1 100 39 8.23 0.00 60 0.0 0.0 12.8 132 0.0 - - - 12.6
Hood 4/17/24 80.8 1855 47.7 0621 0.00 1.76 16.16 0.129 0.85 419 1.8 8.6 1324 NNW | 328 52.6 100 35 7.64 0.00 60 0.0 0.0 13.1 129 0.0 - - - 12.4
Courtland-C3 4/17/24 80.1 1834 48.7 0633 0.00 1.84 14.91 - - - 2.3 10.1 1111 NNW | 330 53.0 97 38 7.21 0.00 60 0.0 0.0 12.9 127 0.0 - - - 12.6
Pacific Fruit 4/17/24 81.3 1834 49.7 0630 0.00 1.55 14.37 0.136 0.88 452 2.0 9.6 1108 NNE | 32 54.4 96 38 7.89 0.00 60 0.0 0.0 14.1 139 0.0 - - - 12.4
Ryer Island South 4/17/24 78.2 1551 48.6 0549 0.00 1.19 10.76 0.154 0.93 528 2.5 9.9 1132 NNE | 23 52.9 99 33 7.57 0.00 60 0.0 0.0 13.1 135 0.0 6.4 - - 12.2
Farmington (Mobley100) 4/17/24 77.8 1557 48.6 0658 - - - - - - 0.2 4.4 1106 SW | 229 54.9 98 45 7.65 0.00 30 0.0 0.0 12.2 122 0.0 - - - 12.6
Collegeville 4/17/24 81.1 1636 47.9 0618 0.00 1.99 15.05 0.158 0.86 541 0.8 8.5 1231 NNW | 343 54.1 100 37 8.32 0.00 0 0.0 0.0 12.8 124 0.0 - - - 12.6
Oakdale North (28 Mile Rd) 4/17/24 75.7 1600 51.3 0336 - - - - - - 0.4 5.6 1423 WSW | 254 55.2 96 51 7.78 0.00 0 0.0 0.0 12.8 120 0.0 - - - 12.8
Escalon 4/17/24 80.2 1657 47.9 0626 0.00 1.78 16.79 - - - 0.9 8.7 1332 WNW | 283 55.2 100 39 9.12 0.00 90 0.0 0.0 13.4 134 0.0 12.9 - - 12.4
Claussen 4/17/24 81.9 1612 50.3 0638 0.00 2.00 11.57 0.169 0.95 561 2.0 8.3 1004 E | 88 53.5 87 40 8.58 0.00 0 0.0 0.0 14.9 143 0.0 - - - 12.4
Max   85.2 - 52.4 - 0.00 2.88 18.29 0.169 0.96 561 2.9 13.2 - - 57.4 100 51 9.15 0.00 - 0.0 0.0 15.2 - 0.0 24.0 80.4 47.8 13.3
Avg   - - - - - - - - - - 1.6 - - - 53.6 - - 7.64 0.00 - 0.0 0.0 12.9 - 0.0 - - - -
Min   75.7 - 46.8 - 0.00 0.08 10.48 0.095 0.63 270 0.1 4.4 - - 50.9 87 30 6.45 0.00 - 0.0 0.0 11.1 - 0.0 0.0 79.1 -39.9 11.8